Chickerell, United Kingdom
Current Conditions -  °F | °C
As of 1:08 PM on Thursday 30 Oct 2014 (Local Time) from EGDY Reporting Station
Haze Haze  
Wind Chill: 18°   Ceiling: Unl
Heat Index: 18°   Visibility: 5mi
Dew Point: 15°   Wind: 7mph
Humidity: 83%   Direction: 160°SSE
Pressure: 30.03"   Gusts: NA
Location:  50.62°N, 2.5°W
Report Text: EGDY 301308Z 16006KT 8000 HZ FEW012 18/15 Q1017 BLU NOSIG
Loading
Personal Weather Stations






























Interactive Weather Map
Tropical Storm Tracking
New forecast layout! Learn more

10-Day Weather Forecast

Advertisements
Track Severe Weather on mobile